createdAt,value
2023-04-10T00:01:27.472Z,5.599
2023-04-10T00:02:24.414Z,6.300
2023-04-10T00:03:24.357Z,6.099
2023-04-10T00:04:24.102Z,6.599
2023-04-10T00:05:23.963Z,6.300
2023-04-10T00:06:24.073Z,5.599
2023-04-10T00:07:23.895Z,6.199
2023-04-10T00:08:23.678Z,6.099
2023-04-10T00:09:23.791Z,6.199
2023-04-10T00:10:24.463Z,6
2023-04-10T00:11:23.861Z,5.699
2023-04-10T00:12:23.736Z,6.099
2023-04-10T00:13:23.832Z,5.699
2023-04-10T00:14:24.508Z,6
2023-04-10T00:15:23.354Z,6.099
2023-04-10T00:16:23.600Z,6.5
2023-04-10T00:18:23.688Z,6
2023-04-10T00:20:23.821Z,6.300
2023-04-10T00:21:28.874Z,5.5
2023-04-10T00:22:24.220Z,5.900
2023-04-10T00:23:24.152Z,6
2023-04-10T00:25:23.493Z,5.5
2023-04-10T00:26:23.608Z,5.900
2023-04-10T00:27:24.174Z,5.800
2023-04-10T00:31:37.594Z,5.900
2023-04-10T00:32:24.085Z,5.699
2023-04-10T00:33:23.792Z,5.900
2023-04-10T00:34:24.436Z,5.699
2023-04-10T00:36:23.500Z,5.599
2023-04-10T00:38:24.171Z,5.699
2023-04-10T00:39:24.190Z,6.300
2023-04-10T00:40:23.968Z,6.099
2023-04-10T00:41:23.856Z,5.900
2023-04-10T00:42:23.617Z,6
2023-04-10T00:44:24.080Z,5.900
2023-04-10T00:45:23.943Z,5.699
2023-04-10T00:46:24.108Z,5.800
2023-04-10T00:47:23.656Z,6.099
2023-04-10T00:48:23.626Z,5.800
2023-04-10T00:49:23.869Z,5.300
2023-04-10T00:50:24.082Z,5.5
2023-04-10T00:51:24.440Z,6
2023-04-10T00:52:23.206Z,5.699
2023-04-10T00:54:23.424Z,5.5
2023-04-10T00:57:23.710Z,5.300
2023-04-10T00:58:23.655Z,5.099
2023-04-10T00:59:24.102Z,5.599
2023-04-10T01:00:25.208Z,5.5
2023-04-10T01:01:23.579Z,5.199
2023-04-10T01:02:24.005Z,5.400
2023-04-10T01:03:23.601Z,5.5
2023-04-10T01:05:23.805Z,5.900
2023-04-10T01:06:24.266Z,5.5
2023-04-10T01:07:23.326Z,5.699
2023-04-10T01:08:23.571Z,5.599
2023-04-10T01:10:24.131Z,5.5
2023-04-10T01:12:24.504Z,5.300
2023-04-10T01:13:24.071Z,5.099
2023-04-10T01:14:23.636Z,5.400
2023-04-10T01:15:24.090Z,5
2023-04-10T01:17:23.328Z,5.099
2023-04-10T01:19:23.699Z,5.199
2023-04-10T01:20:24.149Z,5.5
2023-04-10T01:21:23.332Z,5.099
2023-04-10T01:22:23.901Z,4.699
2023-04-10T01:23:23.485Z,5
2023-04-10T01:24:23.569Z,4.900
2023-04-10T01:27:23.268Z,5.300
2023-04-10T01:28:23.577Z,5.199
2023-04-10T01:29:23.642Z,5.400
2023-04-10T01:31:24.134Z,4.800
2023-04-10T01:32:23.368Z,4.900
2023-04-10T01:33:23.625Z,4.800
2023-04-10T01:34:23.490Z,5
2023-04-10T01:35:24.312Z,4.5
2023-04-10T01:36:23.519Z,5
2023-04-10T01:37:23.342Z,4.800
2023-04-10T01:38:24.150Z,4.599
2023-04-10T01:39:24.320Z,4.699
2023-04-10T01:41:24.303Z,5.300
2023-04-10T01:42:23.657Z,5.400
2023-04-10T01:43:23.769Z,5.199
2023-04-10T01:44:24.020Z,5.099
2023-04-10T01:45:23.933Z,4.900
2023-04-10T01:46:24.105Z,5
2023-04-10T01:47:24.187Z,4.900
2023-04-10T01:48:23.708Z,5.099
2023-04-10T01:50:24.450Z,5.400
2023-04-10T01:52:23.779Z,5.5
2023-04-10T01:53:23.933Z,5.300
2023-04-10T01:54:23.706Z,5.900
2023-04-10T01:55:23.671Z,5.5
2023-04-10T01:56:23.479Z,5.699
2023-04-10T01:58:24.220Z,5.800
2023-04-10T01:59:24.284Z,5.400
2023-04-10T02:01:29.692Z,5.900
2023-04-10T02:03:24.201Z,5.800
2023-04-10T02:04:24.453Z,5.699
2023-04-10T02:05:23.928Z,5.900
2023-04-10T02:06:23.743Z,5.699
2023-04-10T02:07:23.060Z,5.800
2023-04-10T02:08:24.301Z,5.699
2023-04-10T02:09:23.725Z,5.5
2023-04-10T02:10:24.587Z,6
2023-04-10T02:11:23.565Z,5.699
2023-04-10T02:13:23.778Z,5.599
2023-04-10T02:14:24.641Z,6.199
2023-04-10T02:15:23.871Z,5.900
2023-04-10T02:16:24.054Z,5.400
2023-04-10T02:17:24.076Z,5.300
2023-04-10T02:18:23.749Z,5.099
2023-04-10T02:19:23.638Z,5.199
2023-04-10T02:20:24.064Z,5.699
2023-04-10T02:21:23.500Z,5
2023-04-10T02:22:23.448Z,5.800
2023-04-10T02:23:24.168Z,5.699
2023-04-10T02:24:23.619Z,6
2023-04-10T02:25:23.988Z,5.800
2023-04-10T02:26:24.137Z,5.300
2023-04-10T02:27:23.772Z,5.599
2023-04-10T02:28:23.719Z,5.800
2023-04-10T02:29:23.552Z,5.5
2023-04-10T02:30:24.296Z,6.300
2023-04-10T02:31:23.612Z,5.699
2023-04-10T02:32:24.064Z,6.199
2023-04-10T02:33:23.649Z,5.5
2023-04-10T02:34:23.969Z,5.900
2023-04-10T02:35:23.279Z,5.699
2023-04-10T02:36:23.771Z,5.599
2023-04-10T02:38:24.338Z,6.800
2023-04-10T02:39:24.269Z,5.699
2023-04-10T02:40:24.574Z,5.900
2023-04-10T02:41:23.911Z,6
2023-04-10T02:42:24.225Z,6.099
2023-04-10T02:43:23.322Z,6.300
2023-04-10T02:44:24.099Z,5.900
2023-04-10T02:45:23.935Z,6.099
2023-04-10T02:46:23.599Z,5.800
2023-04-10T02:47:23.618Z,5.099
2023-04-10T02:48:23.246Z,5.599
2023-04-10T02:49:23.962Z,5.699
2023-04-10T02:50:24.581Z,5.800
2023-04-10T02:53:24.281Z,5.699
2023-04-10T02:55:23.792Z,5.400
2023-04-10T02:56:23.687Z,5.599
2023-04-10T02:57:23.760Z,5.800
2023-04-10T02:58:23.545Z,5.300
2023-04-10T02:59:23.430Z,5.5
2023-04-10T03:00:24.742Z,5.400
2023-04-10T03:01:24.199Z,5.699
2023-04-10T03:03:24.039Z,5.300
2023-04-10T03:05:23.419Z,6.199
2023-04-10T03:06:23.888Z,5.800
2023-04-10T03:07:24.032Z,5.5
2023-04-10T03:08:23.753Z,5.599
2023-04-10T03:09:23.407Z,5.300
2023-04-10T03:10:23.475Z,5.5
2023-04-10T03:11:23.527Z,5.300
2023-04-10T03:12:23.756Z,5.400
2023-04-10T03:13:23.636Z,5.699
2023-04-10T03:14:23.447Z,5.199
2023-04-10T03:15:23.460Z,4.900
2023-04-10T03:16:23.631Z,4.800
2023-04-10T03:17:23.761Z,5.199
2023-04-10T03:18:24.352Z,4.900
2023-04-10T03:19:23.992Z,5.199
2023-04-10T03:20:24.222Z,4.400
2023-04-10T03:21:23.735Z,5
2023-04-10T03:22:23.423Z,4.800
2023-04-10T03:23:23.586Z,4.699
2023-04-10T03:25:23.650Z,4.800
2023-04-10T03:26:23.585Z,4.900
2023-04-10T03:27:23.783Z,4.800
2023-04-10T03:28:23.844Z,5
2023-04-10T03:29:24.088Z,5.199
2023-04-10T03:30:46.437Z,5.099
2023-04-10T03:31:23.722Z,4.599
2023-04-10T03:32:23.960Z,5.099
2023-04-10T03:33:24.008Z,5
2023-04-10T03:35:27.543Z,5.699
2023-04-10T03:36:23.752Z,4.900
2023-04-10T03:37:23.722Z,5.400
2023-04-10T03:38:23.622Z,5.300
2023-04-10T03:39:24.141Z,5.099
2023-04-10T03:42:24.075Z,5
2023-04-10T03:43:23.263Z,4.900
2023-04-10T03:44:23.814Z,5.099
2023-04-10T03:45:24.280Z,5.199
2023-04-10T03:46:23.190Z,4.800
2023-04-10T03:47:23.242Z,5.199
2023-04-10T03:48:23.524Z,5.300
2023-04-10T03:49:23.754Z,5.400
2023-04-10T03:50:24.171Z,4.900
2023-04-10T03:53:24.228Z,4.800
2023-04-10T03:54:23.023Z,5.099
2023-04-10T03:55:23.954Z,5.400
2023-04-10T03:56:23.918Z,5.300
2023-04-10T03:57:23.711Z,5.5
2023-04-10T03:58:23.262Z,5.800
2023-04-10T03:59:31.048Z,5.300
2023-04-10T04:00:25.221Z,5.900
2023-04-10T04:01:23.780Z,6.199
2023-04-10T04:02:24.032Z,5.800
2023-04-10T04:03:23.701Z,6.099
2023-04-10T04:04:23.363Z,5.5
2023-04-10T04:05:23.595Z,6.099
2023-04-10T04:06:23.918Z,6.300
2023-04-10T04:07:23.947Z,6.199
2023-04-10T04:08:23.936Z,6.5
2023-04-10T04:09:24.474Z,6.300
2023-04-10T04:10:24.231Z,6
2023-04-10T04:11:23.316Z,6.400
2023-04-10T04:12:23.642Z,5.900
2023-04-10T04:15:23.826Z,6
2023-04-10T04:17:24.394Z,6.199
2023-04-10T04:18:23.735Z,6.099
2023-04-10T04:19:23.768Z,6
2023-04-10T04:20:23.886Z,6.099
2023-04-10T04:21:24.405Z,6.199
2023-04-10T04:22:24.362Z,6.099
2023-04-10T04:23:23.442Z,6.300
2023-04-10T04:24:24.022Z,5.900
2023-04-10T04:25:24.958Z,6.5
2023-04-10T04:26:23.953Z,5.699
2023-04-10T04:27:24.668Z,6.400
2023-04-10T04:28:24.094Z,6.099
2023-04-10T04:29:23.736Z,5.699
2023-04-10T04:30:23.607Z,5.599
2023-04-10T04:31:23.887Z,6.199
2023-04-10T04:32:23.580Z,5.800
2023-04-10T04:33:23.515Z,6
2023-04-10T04:34:23.209Z,6.800
2023-04-10T04:35:23.303Z,6.099
2023-04-10T04:36:23.798Z,6.400
2023-04-10T04:37:23.896Z,6.800
2023-04-10T04:38:24.376Z,6
2023-04-10T04:39:24.197Z,6.599
2023-04-10T04:40:23.482Z,6.099
2023-04-10T04:41:23.716Z,6.599
2023-04-10T04:43:23.996Z,6.400
2023-04-10T04:44:24.718Z,6.800
2023-04-10T04:45:25.200Z,7
2023-04-10T04:46:24.058Z,6.599
2023-04-10T04:47:24.659Z,6.199
2023-04-10T04:48:23.981Z,6.300
2023-04-10T04:49:24.194Z,6.099
2023-04-10T04:50:24.132Z,5.699
2023-04-10T04:51:24.126Z,6.099
2023-04-10T04:52:23.411Z,6.300
2023-04-10T04:53:23.778Z,6.199
2023-04-10T04:54:24.044Z,6.5
2023-04-10T04:55:24.307Z,6.199
2023-04-10T04:56:23.312Z,6
2023-04-10T04:57:23.324Z,5.699
2023-04-10T04:58:23.462Z,5.800
2023-04-10T04:59:23.107Z,6
2023-04-10T05:00:25.044Z,5.599
2023-04-10T05:01:23.625Z,5.400
2023-04-10T05:02:23.906Z,5.599
2023-04-10T05:04:24.167Z,5.099
2023-04-10T05:05:24.060Z,5.300
2023-04-10T05:06:23.766Z,5.099
2023-04-10T05:07:24.468Z,5.400
2023-04-10T05:08:24.348Z,5
2023-04-10T05:09:23.896Z,5.199
2023-04-10T05:10:23.832Z,5.300
2023-04-10T05:11:28.715Z,4.800
2023-04-10T05:12:24.301Z,5
2023-04-10T05:13:23.951Z,4.800
2023-04-10T05:14:23.771Z,4.699
2023-04-10T05:15:24.120Z,4.900
2023-04-10T05:17:23.686Z,5
2023-04-10T05:19:23.511Z,5.099
2023-04-10T05:20:23.946Z,5.199
2023-04-10T05:21:24.054Z,4.800
2023-04-10T05:22:23.497Z,7.599
2023-04-10T05:23:24.221Z,7.699
2023-04-10T05:24:23.929Z,7.099
2023-04-10T05:25:23.919Z,6.5
2023-04-10T05:26:24.565Z,6.099
2023-04-10T05:28:24.582Z,5.599
2023-04-10T05:29:24.222Z,5.900
2023-04-10T05:30:25.064Z,5.800
2023-04-10T05:31:37.542Z,5.599
2023-04-10T05:32:23.432Z,5.199
2023-04-10T05:33:24.008Z,4.900
2023-04-10T05:34:23.461Z,5.099
2023-04-10T05:35:24.165Z,5
2023-04-10T05:36:24.280Z,5.300
2023-04-10T05:37:23.751Z,5.199
2023-04-10T05:38:23.545Z,4.900
2023-04-10T05:39:23.947Z,4.599
2023-04-10T05:40:24.097Z,4.800
2023-04-10T05:41:23.602Z,4.900
2023-04-10T05:42:24.215Z,5
2023-04-10T05:43:23.678Z,4.599
2023-04-10T05:44:23.764Z,5.099
2023-04-10T05:45:24.885Z,4.800
2023-04-10T05:46:24.025Z,5.099
2023-04-10T05:47:23.685Z,4.599
2023-04-10T05:48:23.618Z,5.099
2023-04-10T05:50:24.553Z,9
2023-04-10T05:51:23.934Z,7.699
2023-04-10T05:52:24.031Z,6.599
2023-04-10T05:54:24.171Z,6.400
2023-04-10T05:55:24.006Z,6.900
2023-04-10T05:56:23.606Z,6.699
2023-04-10T05:57:23.584Z,6.5
2023-04-10T05:59:23.716Z,6.599
2023-04-10T06:00:25.141Z,6.400
2023-04-10T06:02:23.977Z,5.900
2023-04-10T06:03:24.575Z,6
2023-04-10T06:04:24.416Z,6.199
2023-04-10T06:06:23.501Z,5.900
2023-04-10T06:07:24.612Z,5.599
2023-04-10T06:08:24.624Z,5.400
2023-04-10T06:09:23.871Z,5.699
2023-04-10T06:10:23.935Z,5.599
2023-04-10T06:11:23.900Z,5.900
2023-04-10T06:12:23.591Z,5.699
2023-04-10T06:14:23.851Z,6.099
2023-04-10T06:15:24.723Z,5.900
2023-04-10T06:16:24.283Z,6.800
2023-04-10T06:17:23.680Z,6.300
2023-04-10T06:18:23.991Z,7.5
2023-04-10T06:19:23.901Z,6.400
2023-04-10T06:21:23.969Z,6.099
2023-04-10T06:22:23.816Z,6.199
2023-04-10T06:23:23.394Z,5.699
2023-04-10T06:24:24.855Z,5.800
2023-04-10T06:25:24.667Z,6.099
2023-04-10T06:26:23.900Z,5.699
2023-04-10T06:27:23.846Z,5.400
2023-04-10T06:29:24.074Z,5.800
2023-04-10T06:30:24.807Z,5.900
2023-04-10T06:31:23.946Z,5.800
2023-04-10T06:32:24.379Z,5.5
2023-04-10T06:33:24.278Z,5.599
2023-04-10T06:34:24.041Z,5.800
2023-04-10T06:35:23.883Z,5.699
2023-04-10T06:36:23.405Z,5.5
2023-04-10T06:38:23.959Z,5.599
2023-04-10T06:39:24.472Z,5.800
2023-04-10T06:40:23.300Z,6.199
2023-04-10T06:41:23.354Z,5.900
2023-04-10T06:42:23.628Z,6.199
2023-04-10T06:43:23.616Z,6.300
2023-04-10T06:44:24.297Z,6.199
2023-04-10T06:45:23.761Z,6.699
2023-04-10T06:46:23.875Z,6.800
2023-04-10T06:47:24.175Z,6.699
2023-04-10T06:48:23.626Z,6.400
2023-04-10T06:49:24.321Z,6.800
2023-04-10T06:50:24.710Z,7
2023-04-10T06:51:24.132Z,7.099
2023-04-10T06:52:23.329Z,7.199
2023-04-10T06:54:27.709Z,6.800
2023-04-10T06:56:24.324Z,7
2023-04-10T06:57:23.700Z,7.099
2023-04-10T06:58:23.715Z,7.199
2023-04-10T06:59:23.417Z,7
2023-04-10T07:00:25.074Z,6.699
2023-04-10T07:01:24.814Z,6.599
2023-04-10T07:02:24.126Z,7.199
2023-04-10T07:03:23.796Z,7.099
2023-04-10T07:04:23.756Z,6.599
2023-04-10T07:05:23.915Z,6.900
2023-04-10T07:06:24.066Z,6.5
2023-04-10T07:07:23.556Z,6.699
2023-04-10T07:08:24.172Z,7.099
2023-04-10T07:09:23.684Z,6.400
2023-04-10T07:10:24.130Z,6.800
2023-04-10T07:12:23.672Z,6.300
2023-04-10T07:13:24.168Z,6.400
2023-04-10T07:14:23.568Z,6.199
2023-04-10T07:15:23.857Z,6
2023-04-10T07:16:23.475Z,5.599
2023-04-10T07:17:23.604Z,6.5
2023-04-10T07:18:23.715Z,6.199
2023-04-10T07:19:24.700Z,6.099
2023-04-10T07:20:23.972Z,6.300
2023-04-10T07:21:24.140Z,5.5
2023-04-10T07:22:23.772Z,6.400
2023-04-10T07:23:23.929Z,6.199
2023-04-10T07:25:24.179Z,6.099
2023-04-10T07:26:23.645Z,5.599
2023-04-10T07:27:23.727Z,6
2023-04-10T07:28:24.137Z,6.099
2023-04-10T07:29:23.876Z,5.800
2023-04-10T07:30:24.626Z,6
2023-04-10T07:31:23.771Z,5
2023-04-10T07:32:24.110Z,5.5
2023-04-10T07:33:23.927Z,5.099
2023-04-10T07:34:23.616Z,5.300
2023-04-10T07:35:24.058Z,4.599
2023-04-10T07:37:23.991Z,5
2023-04-10T07:38:23.850Z,4.099
2023-04-10T07:39:23.927Z,4.599
2023-04-10T07:40:23.663Z,4.199
2023-04-10T07:42:24.331Z,4
2023-04-10T07:43:23.815Z,4.400
2023-04-10T07:45:24.430Z,4.199
2023-04-10T07:47:24.417Z,3.799
2023-04-10T07:48:24.160Z,4.400
2023-04-10T07:49:23.376Z,4.099
2023-04-10T07:50:24.430Z,4
2023-04-10T07:51:23.922Z,3.900
2023-04-10T07:52:23.640Z,4.199
2023-04-10T07:53:23.753Z,3.900
2023-04-10T07:54:23.453Z,3.799
2023-04-10T07:55:23.489Z,4.099
2023-04-10T07:56:23.351Z,4.199
2023-04-10T07:57:24.243Z,3.799
2023-04-10T07:58:23.547Z,3.599
2023-04-10T07:59:23.905Z,3.799
2023-04-10T08:00:38.578Z,3.900
2023-04-10T08:01:23.520Z,4.199
2023-04-10T08:02:24.460Z,3.799
2023-04-10T08:03:24.504Z,4
2023-04-10T08:04:24.702Z,3.900
2023-04-10T08:05:24.381Z,4.199
2023-04-10T08:06:23.621Z,3.799
2023-04-10T08:07:23.999Z,3.700
2023-04-10T08:08:23.178Z,3.599
2023-04-10T08:09:23.638Z,3.799
2023-04-10T08:10:24.788Z,3.900
2023-04-10T08:11:24.065Z,4
2023-04-10T08:13:23.793Z,3.799
2023-04-10T08:14:24.417Z,3.900
2023-04-10T08:15:23.764Z,3.599
2023-04-10T08:17:23.122Z,3.900
2023-04-10T08:18:24.322Z,4.300
2023-04-10T08:19:24.012Z,3.799
2023-04-10T08:21:24.228Z,3.5
2023-04-10T08:22:24.255Z,3.599
2023-04-10T08:23:24.280Z,3.799
2023-04-10T08:24:24.284Z,3.599
2023-04-10T08:25:23.852Z,3.700
2023-04-10T08:26:23.679Z,3.799
2023-04-10T08:27:24.440Z,3.700
2023-04-10T08:30:24.302Z,3.5
2023-04-10T08:31:23.932Z,3.599
2023-04-10T08:32:23.838Z,3.400
2023-04-10T08:33:23.208Z,3.599
2023-04-10T08:35:24.119Z,3.799
2023-04-10T08:36:24.079Z,4
2023-04-10T08:37:23.698Z,3.700
2023-04-10T08:39:24.200Z,3.599
2023-04-10T08:40:24.541Z,3.5
2023-04-10T08:42:24.294Z,3.799
2023-04-10T08:43:24.547Z,3.5
2023-04-10T08:44:23.989Z,3.200
2023-04-10T08:45:24.087Z,3.400
2023-04-10T08:46:24.209Z,3.5
2023-04-10T08:47:23.819Z,3.599
2023-04-10T08:48:24.850Z,3.5
2023-04-10T08:49:23.414Z,3.299
2023-04-10T08:50:23.691Z,3.400
2023-04-10T08:51:25.830Z,3.299
2023-04-10T08:53:24.368Z,3.400
2023-04-10T08:54:24.272Z,3.5
2023-04-10T08:55:24.689Z,3.200
2023-04-10T08:56:23.513Z,3.299
2023-04-10T08:57:23.338Z,3.5
2023-04-10T08:58:24.635Z,3.099
2023-04-10T08:59:23.022Z,3.400
2023-04-10T09:00:24.587Z,3
2023-04-10T09:01:24.198Z,3.200
2023-04-10T09:03:24.097Z,3.5
2023-04-10T09:04:23.656Z,3.099
2023-04-10T09:06:23.276Z,3.200
2023-04-10T09:09:23.770Z,3.099
2023-04-10T09:10:23.734Z,3.299
2023-04-10T09:11:23.634Z,3
2023-04-10T09:12:23.331Z,3.299
2023-04-10T09:13:23.507Z,3.400
2023-04-10T09:14:23.992Z,3
2023-04-10T09:15:24.013Z,3.099
2023-04-10T09:16:23.909Z,3
2023-04-10T09:17:24.044Z,3.200
2023-04-10T09:20:24.512Z,3
2023-04-10T09:21:23.320Z,3.299
2023-04-10T09:22:23.841Z,3.200
2023-04-10T09:23:23.101Z,3
2023-04-10T09:24:23.629Z,3.200
2023-04-10T09:25:23.617Z,2.700
2023-04-10T09:26:24.013Z,3.400
2023-04-10T09:28:23.721Z,2.799
2023-04-10T09:29:23.418Z,3.099
2023-04-10T09:30:23.474Z,2.799
2023-04-10T09:31:23.336Z,2.900
2023-04-10T09:32:23.431Z,3
2023-04-10T09:33:23.311Z,2.900
2023-04-10T09:35:23.685Z,2.799
2023-04-10T09:36:23.529Z,2.599
2023-04-10T09:37:24.116Z,2.900
2023-04-10T09:40:23.979Z,2.799
2023-04-10T09:41:24.008Z,3
2023-04-10T09:42:23.363Z,2.900
2023-04-10T09:43:23.838Z,2.799
2023-04-10T09:44:24.134Z,2.700
2023-04-10T09:45:23.749Z,2.799
2023-04-10T09:48:23.903Z,2.5
2023-04-10T09:49:23.772Z,2.599
2023-04-10T09:50:24.277Z,2.799
2023-04-10T09:51:23.963Z,2.700
2023-04-10T09:52:23.682Z,2.799
2023-04-10T09:54:23.763Z,3
2023-04-10T09:55:23.588Z,2.900
2023-04-10T09:56:23.449Z,2.799
2023-04-10T09:57:23.140Z,3
2023-04-10T09:58:23.691Z,2.900
2023-04-10T09:59:23.758Z,2.5
2023-04-10T10:00:24.589Z,2.700
2023-04-10T10:01:29.036Z,2.900
2023-04-10T10:02:23.597Z,2.799
2023-04-10T10:03:29.054Z,2.700
2023-04-10T10:05:23.962Z,2.5
2023-04-10T10:07:23.480Z,2.599
2023-04-10T10:08:24.000Z,2.700
2023-04-10T10:10:23.808Z,2.599
2023-04-10T10:11:23.748Z,2.5
2023-04-10T10:12:23.657Z,2.700
2023-04-10T10:13:23.906Z,2.400
2023-04-10T10:15:23.849Z,2.799
2023-04-10T10:16:24.172Z,2.700
2023-04-10T10:17:23.416Z,2.5
2023-04-10T10:19:23.223Z,2.700
2023-04-10T10:20:24.106Z,2.599
2023-04-10T10:21:23.823Z,2.5
2023-04-10T10:24:23.779Z,2.700
2023-04-10T10:25:24.070Z,2.599
2023-04-10T10:27:23.602Z,2.400
2023-04-10T10:28:23.774Z,2.5
2023-04-10T10:29:23.750Z,2.700
2023-04-10T10:30:29.947Z,2.599
2023-04-10T10:31:23.457Z,2.400
2023-04-10T10:32:23.668Z,2.700
2023-04-10T10:33:23.886Z,2.5
2023-04-10T10:34:24.479Z,2.400
2023-04-10T10:35:43.427Z,2.599
2023-04-10T10:36:23.490Z,2.700
2023-04-10T10:38:23.726Z,2.5
2023-04-10T10:39:24.104Z,2.700
2023-04-10T10:40:23.655Z,2.5
2023-04-10T10:41:23.624Z,2.400
2023-04-10T10:42:23.410Z,2.5
2023-04-10T10:43:23.295Z,2.400
2023-04-10T10:44:24.067Z,2.299
2023-04-10T10:45:24.013Z,2.200
2023-04-10T10:46:24.189Z,2.5
2023-04-10T10:47:24.003Z,2.299
2023-04-10T10:48:23.653Z,2.400
2023-04-10T10:49:23.609Z,2.299
2023-04-10T10:51:23.444Z,2.599
2023-04-10T10:52:23.307Z,2.200
2023-04-10T10:53:23.895Z,2.400
2023-04-10T10:54:23.867Z,2.599
2023-04-10T10:55:24.266Z,3
2023-04-10T10:56:22.722Z,2.799
2023-04-10T10:57:23.426Z,2.599
2023-04-10T10:58:23.477Z,2.700
2023-04-10T10:59:23.520Z,2.400
2023-04-10T11:00:24.193Z,2.5
2023-04-10T11:01:23.812Z,2.400
2023-04-10T11:02:23.627Z,2.299
2023-04-10T11:03:23.483Z,2.200
2023-04-10T11:05:23.656Z,2
2023-04-10T11:06:23.656Z,2.299
2023-04-10T11:07:23.259Z,2.200
2023-04-10T11:09:23.893Z,2.299
2023-04-10T11:10:23.299Z,2.099
2023-04-10T11:11:23.905Z,2
2023-04-10T11:12:24.127Z,2.299
2023-04-10T11:13:24.034Z,2.099
2023-04-10T11:14:23.741Z,1.899
2023-04-10T11:15:23.664Z,2.200
2023-04-10T11:16:24.189Z,2
2023-04-10T11:17:23.730Z,2.200
2023-04-10T11:18:23.711Z,2.299
2023-04-10T11:19:24.037Z,2.099
2023-04-10T11:20:23.556Z,2.200
2023-04-10T11:21:23.686Z,2.400
2023-04-10T11:22:23.785Z,2.099
2023-04-10T11:23:24.375Z,2.200
2023-04-10T11:24:23.822Z,2.5
2023-04-10T11:25:23.693Z,2.099
2023-04-10T11:26:23.413Z,2.200
2023-04-10T11:27:23.319Z,2.099
2023-04-10T11:28:23.810Z,2.299
2023-04-10T11:29:23.906Z,2.200
2023-04-10T11:30:23.509Z,2
2023-04-10T11:31:23.311Z,2.099
2023-04-10T11:32:23.671Z,2.200
2023-04-10T11:34:24.013Z,2.099
2023-04-10T11:35:24.216Z,2
2023-04-10T11:36:23.477Z,2.200
2023-04-10T11:37:23.538Z,2
2023-04-10T11:38:23.927Z,2.099
2023-04-10T11:40:23.275Z,2.299
2023-04-10T11:41:23.840Z,2.099
2023-04-10T11:42:23.666Z,2
2023-04-10T11:44:23.215Z,1.899
2023-04-10T11:45:23.477Z,2.200
2023-04-10T11:46:24.066Z,2
2023-04-10T11:47:23.887Z,2.099
2023-04-10T11:48:24.085Z,2.400
2023-04-10T11:49:23.386Z,2.099
2023-04-10T11:50:23.964Z,2
2023-04-10T11:51:23.825Z,2.299
2023-04-10T11:52:23.710Z,2
2023-04-10T11:53:23.240Z,2.099
2023-04-10T11:54:23.854Z,2
2023-04-10T11:55:23.656Z,2.200
2023-04-10T11:56:23.459Z,2.099
2023-04-10T11:57:23.408Z,2.400
2023-04-10T11:58:23.225Z,2.200
2023-04-10T11:59:23.715Z,2.099
2023-04-10T12:01:23.934Z,2
2023-04-10T12:02:23.656Z,2.200
2023-04-10T12:03:24.426Z,2
2023-04-10T12:04:24.254Z,2.299
2023-04-10T12:05:24.315Z,2.400
2023-04-10T12:07:23.822Z,2.200
2023-04-10T12:08:23.905Z,2.299
2023-04-10T12:11:23.356Z,2.099
2023-04-10T12:13:23.332Z,2.400
2023-04-10T12:14:24.012Z,2.299
2023-04-10T12:16:23.912Z,2.200
2023-04-10T12:17:23.502Z,2.299
2023-04-10T12:19:23.741Z,2.5
2023-04-10T12:20:23.418Z,2.599
2023-04-10T12:21:23.272Z,2.299
2023-04-10T12:22:23.684Z,2.200
2023-04-10T12:23:23.602Z,2.400
2023-04-10T12:25:23.463Z,2.5
2023-04-10T12:26:23.679Z,2.599
2023-04-10T12:27:23.729Z,2.5
2023-04-10T12:28:23.170Z,2.400
2023-04-10T12:29:23.811Z,2.599
2023-04-10T12:30:23.799Z,2.5
2023-04-10T12:31:23.107Z,2.299
2023-04-10T12:32:23.693Z,2.5
2023-04-10T12:33:23.573Z,2.599
2023-04-10T12:34:23.427Z,2.5
2023-04-10T12:35:23.549Z,2.400
2023-04-10T12:36:23.050Z,2.299
2023-04-10T12:37:23.685Z,2.200
2023-04-10T12:38:23.510Z,2.099
2023-04-10T12:39:23.915Z,2.299
2023-04-10T12:40:24.035Z,2.099
2023-04-10T12:41:24.397Z,2.299
2023-04-10T12:42:23.582Z,2.200
2023-04-10T12:44:23.503Z,2.400
2023-04-10T12:46:23.623Z,2.200
2023-04-10T12:47:23.830Z,2.5
2023-04-10T12:48:23.925Z,2.400
2023-04-10T12:49:23.309Z,2.799
2023-04-10T12:50:23.809Z,3
2023-04-10T12:51:23.857Z,2.5
2023-04-10T12:52:23.645Z,2.299
2023-04-10T12:54:23.405Z,2.200
2023-04-10T12:55:23.741Z,2.400
2023-04-10T12:56:23.620Z,2.200
2023-04-10T12:58:23.650Z,2.5
2023-04-10T12:59:23.715Z,2.299
2023-04-10T13:00:43.140Z,2
2023-04-10T13:01:23.568Z,2.099
2023-04-10T13:02:43.371Z,2.200
2023-04-10T13:05:23.766Z,2.099
2023-04-10T13:06:45.878Z,2.200
2023-04-10T13:07:22.866Z,2.400
2023-04-10T13:08:23.483Z,2.200
2023-04-10T13:09:23.668Z,2.299
2023-04-10T13:11:23.243Z,2.099
2023-04-10T13:12:23.062Z,2.299
2023-04-10T13:13:23.423Z,1.899
2023-04-10T13:14:23.776Z,2.200
2023-04-10T13:16:23.993Z,2.099
2023-04-10T13:17:23.711Z,2.299
2023-04-10T13:18:23.534Z,2.099
2023-04-10T13:20:23.181Z,2.200
2023-04-10T13:21:23.685Z,2.299
2023-04-10T13:22:23.311Z,2.200
2023-04-10T13:24:23.790Z,2.299
2023-04-10T13:25:23.466Z,2.099
2023-04-10T13:26:23.514Z,2.200
2023-04-10T13:29:23.646Z,2
2023-04-10T13:30:23.761Z,2.299
2023-04-10T13:31:23.455Z,2.099
2023-04-10T13:32:23.747Z,2
2023-04-10T13:33:23.636Z,2.299
2023-04-10T13:34:23.591Z,2
2023-04-10T13:35:23.418Z,2.299
2023-04-10T13:36:23.361Z,2.099
2023-04-10T13:40:23.540Z,2
2023-04-10T13:41:23.220Z,2.099
2023-04-10T13:43:23.156Z,2.200
2023-04-10T13:44:23.602Z,2.099
2023-04-10T13:45:24.027Z,2.200
2023-04-10T13:46:23.755Z,2
2023-04-10T13:47:23.579Z,2.299
2023-04-10T13:48:29.978Z,2.099
2023-04-10T13:49:23.424Z,2.299
2023-04-10T13:50:24.019Z,2.099
2023-04-10T13:51:23.906Z,2
2023-04-10T13:54:23.513Z,1.899
2023-04-10T13:55:23.620Z,2.200
2023-04-10T13:56:23.407Z,2.099
2023-04-10T13:59:23.278Z,2.200
2023-04-10T14:00:24.943Z,2.099
2023-04-10T14:01:23.635Z,1.899
2023-04-10T14:06:23.408Z,2.400
2023-04-10T14:07:23.077Z,2.599
2023-04-10T14:10:23.595Z,4.099
2023-04-10T14:11:23.074Z,4.699
2023-04-10T14:12:23.706Z,3.5
2023-04-10T14:13:23.259Z,3.900
2023-04-10T14:14:23.139Z,2.799
2023-04-10T14:15:23.673Z,2.700
2023-04-10T14:16:23.564Z,3.5
2023-04-10T14:17:23.172Z,2.799
2023-04-10T14:18:23.182Z,2.5
2023-04-10T14:19:23.474Z,2.299
2023-04-10T14:21:22.931Z,3.099
2023-04-10T14:22:23.548Z,2.299
2023-04-10T14:23:23.051Z,2.799
2023-04-10T14:24:23.929Z,4.5
2023-04-10T14:25:23.647Z,4.400
2023-04-10T14:26:23.370Z,5.800
2023-04-10T14:27:24.141Z,4
2023-04-10T14:28:23.613Z,3.200
2023-04-10T14:29:33.110Z,9.899
2023-04-10T14:30:23.577Z,8.899
2023-04-10T14:31:23.482Z,9.5
2023-04-10T14:32:23.695Z,5
2023-04-10T14:33:23.768Z,8.600
2023-04-10T14:34:23.263Z,10.19
2023-04-10T14:35:23.949Z,6.300
2023-04-10T14:36:23.457Z,6.699
2023-04-10T14:37:23.535Z,4
2023-04-10T14:38:23.708Z,2.799
2023-04-10T14:39:24.070Z,3.400
2023-04-10T14:40:24.255Z,3.599
2023-04-10T14:41:23.379Z,5.800
2023-04-10T14:42:23.316Z,3.5
2023-04-10T14:43:23.430Z,3.799
2023-04-10T14:44:23.270Z,3.400
2023-04-10T14:45:23.891Z,2.700
2023-04-10T14:46:23.363Z,5.400
2023-04-10T14:47:23.227Z,6.900
2023-04-10T14:48:23.801Z,3.700
2023-04-10T14:49:23.332Z,3.299
2023-04-10T14:50:24.359Z,3.900
2023-04-10T14:51:23.867Z,2.900
2023-04-10T14:52:24.108Z,2.5
2023-04-10T14:53:23.483Z,3.900
2023-04-10T14:54:23.506Z,6
2023-04-10T14:55:23.472Z,6.099
2023-04-10T14:56:23.726Z,9.600
2023-04-10T14:57:23.575Z,5.900
2023-04-10T14:58:23.154Z,9.899
2023-04-10T14:59:23.554Z,4.099
2023-04-10T15:00:23.952Z,5.5
2023-04-10T15:01:31.633Z,4.699
2023-04-10T15:02:23.622Z,5.099
2023-04-10T15:03:25.277Z,3.299
2023-04-10T15:04:23.727Z,2.799
2023-04-10T15:05:24.125Z,2.5
2023-04-10T15:06:23.743Z,2.400
2023-04-10T15:07:23.451Z,2.799
2023-04-10T15:08:24.357Z,2.5
2023-04-10T15:09:23.671Z,2.400
2023-04-10T15:10:23.762Z,2.599
2023-04-10T15:11:23.595Z,2.700
2023-04-10T15:12:23.138Z,2.599
2023-04-10T15:13:23.586Z,2.700
2023-04-10T15:15:23.463Z,2.400
2023-04-10T15:17:23.792Z,2.599
2023-04-10T15:19:23.430Z,2.700
2023-04-10T15:20:23.682Z,2.799
2023-04-10T15:22:23.774Z,2.599
2023-04-10T15:23:23.607Z,2.799
2023-04-10T15:24:23.329Z,2.700
2023-04-10T15:25:24.103Z,2.599
2023-04-10T15:28:23.505Z,2.700
2023-04-10T15:30:23.742Z,2.5
2023-04-10T15:31:23.425Z,2.700
2023-04-10T15:32:23.875Z,2.599